createdAt,value
2019-03-28T00:01:41.319Z,18.40
2019-03-28T00:04:10.719Z,18.30
2019-03-28T00:06:40.091Z,18.40
2019-03-28T00:09:10.097Z,18.40
2019-03-28T00:11:40.228Z,18.50
2019-03-28T00:14:09.554Z,18.40
2019-03-28T00:16:39.007Z,18.50
2019-03-28T00:19:07.675Z,18.50
2019-03-28T00:21:37.024Z,18.40
2019-03-28T00:24:10.058Z,18.40
2019-03-28T00:26:39.556Z,18.30
2019-03-28T00:29:09.083Z,18.10
2019-03-28T00:31:38.400Z,17.90
2019-03-28T00:34:08.767Z,18.00
2019-03-28T00:36:38.219Z,18.00
2019-03-28T00:39:07.841Z,18.10
2019-03-28T00:41:37.247Z,18.10
2019-03-28T00:44:06.487Z,18.10
2019-03-28T00:46:35.893Z,18.20
2019-03-28T00:49:06.212Z,18.30
2019-03-28T00:51:35.771Z,18.30
2019-03-28T00:54:05.430Z,18.30
2019-03-28T00:56:46.599Z,18.20
2019-03-28T00:59:04.820Z,18.20
2019-03-28T01:01:34.261Z,18.10
2019-03-28T01:04:04.837Z,18.00
2019-03-28T01:06:34.417Z,17.90
2019-03-28T01:09:04.250Z,17.90
2019-03-28T01:11:33.873Z,17.90
2019-03-28T01:14:03.370Z,17.90
2019-03-28T01:16:32.491Z,17.90
2019-03-28T01:19:02.010Z,17.90
2019-03-28T01:21:31.641Z,17.80
2019-03-28T01:24:01.322Z,17.70
2019-03-28T01:26:30.838Z,17.60
2019-03-28T01:29:00.469Z,17.60
2019-03-28T01:31:30.042Z,17.40
2019-03-28T01:33:59.335Z,17.30
2019-03-28T01:36:28.988Z,17.20
2019-03-28T01:38:58.580Z,17.20
2019-03-28T01:41:28.090Z,17.10
2019-03-28T01:43:57.358Z,17.00
2019-03-28T01:46:27.819Z,16.90
2019-03-28T01:48:58.342Z,16.90
2019-03-28T01:51:27.843Z,16.80
2019-03-28T01:53:57.007Z,16.70
2019-03-28T01:56:26.850Z,16.60
2019-03-28T01:58:56.129Z,16.40
2019-03-28T02:01:25.930Z,16.30
2019-03-28T02:04:00.475Z,16.10
2019-03-28T02:06:29.817Z,16.00
2019-03-28T02:09:16.037Z,15.90
2019-03-28T02:11:46.862Z,15.80
2019-03-28T02:14:19.580Z,15.70
2019-03-28T02:16:54.267Z,15.60
2019-03-28T02:19:25.843Z,15.50
2019-03-28T02:21:57.885Z,15.30
2019-03-28T02:24:27.932Z,15.30
2019-03-28T02:26:57.447Z,15.20
2019-03-28T02:29:28.209Z,15.10
2019-03-28T02:31:59.221Z,15.00
2019-03-28T02:34:29.479Z,14.80
2019-03-28T02:36:59.528Z,14.70
2019-03-28T02:39:30.951Z,14.60
2019-03-28T02:42:01.613Z,14.60
2019-03-28T02:44:31.144Z,14.50
2019-03-28T02:47:02.212Z,14.40
2019-03-28T02:49:33.529Z,14.30
2019-03-28T02:52:06.527Z,14.20
2019-03-28T02:54:35.619Z,14.20
2019-03-28T02:57:05.853Z,14.00
2019-03-28T02:59:35.428Z,14.00
2019-03-28T03:02:06.609Z,13.90
2019-03-28T03:04:35.565Z,13.80
2019-03-28T03:07:05.979Z,13.70
2019-03-28T03:09:35.549Z,13.70
2019-03-28T03:12:04.965Z,13.60
2019-03-28T03:14:34.593Z,13.60
2019-03-28T03:17:04.088Z,13.50
2019-03-28T03:19:33.586Z,13.50
2019-03-28T03:22:03.263Z,13.40
2019-03-28T03:24:32.922Z,13.30
2019-03-28T03:27:02.451Z,13.20
2019-03-28T03:29:31.916Z,13.20
2019-03-28T03:32:01.461Z,13.10
2019-03-28T03:34:35.353Z,13.00
2019-03-28T03:37:07.486Z,12.90
2019-03-28T03:39:41.994Z,12.90
2019-03-28T03:42:11.309Z,12.90
2019-03-28T03:44:41.971Z,12.80
2019-03-28T03:47:09.721Z,12.70
2019-03-28T03:49:39.372Z,12.70
2019-03-28T03:52:08.963Z,12.70
2019-03-28T03:54:38.434Z,12.60
2019-03-28T03:57:08.282Z,12.50
2019-03-28T03:59:37.809Z,12.50
2019-03-28T04:02:07.366Z,12.50
2019-03-28T04:04:36.856Z,12.40
2019-03-28T04:07:06.130Z,12.40
2019-03-28T04:09:35.974Z,12.30
2019-03-28T04:12:05.533Z,12.30
2019-03-28T04:14:35.011Z,12.20
2019-03-28T04:17:04.449Z,12.20
2019-03-28T04:19:34.056Z,12.20
2019-03-28T04:22:03.648Z,12.20
2019-03-28T04:24:33.327Z,12.20
2019-03-28T04:27:03.425Z,12.20
2019-03-28T04:29:32.733Z,12.20
2019-03-28T04:32:02.529Z,12.10
2019-03-28T04:34:31.892Z,12.10
2019-03-28T04:37:01.175Z,12.10
2019-03-28T04:39:30.531Z,12.10
2019-03-28T04:42:00.084Z,12.10
2019-03-28T04:44:29.328Z,12.10
2019-03-28T04:46:59.341Z,12.10
2019-03-28T04:49:28.911Z,12.00
2019-03-28T04:51:58.186Z,12.00
2019-03-28T04:54:27.330Z,12.00
2019-03-28T04:56:56.753Z,12.00
2019-03-28T04:59:27.035Z,12.00
2019-03-28T05:02:02.798Z,12.00
2019-03-28T05:04:27.007Z,12.00
2019-03-28T05:06:57.198Z,12.00
2019-03-28T05:09:26.626Z,12.00
2019-03-28T05:11:56.116Z,12.00
2019-03-28T05:14:26.880Z,12.00
2019-03-28T05:16:56.463Z,12.00
2019-03-28T05:19:26.255Z,12.00
2019-03-28T05:21:56.398Z,12.00
2019-03-28T05:24:25.643Z,11.90
2019-03-28T05:26:55.166Z,11.90
2019-03-28T05:29:24.527Z,11.80
2019-03-28T05:31:53.791Z,11.90
2019-03-28T05:34:23.174Z,12.00
2019-03-28T05:36:52.781Z,11.90
2019-03-28T05:39:22.169Z,12.00
2019-03-28T05:41:51.658Z,12.00
2019-03-28T05:44:21.079Z,12.00
2019-03-28T05:46:50.610Z,12.00
2019-03-28T05:49:20.710Z,11.90
2019-03-28T05:51:50.973Z,12.00
2019-03-28T05:54:20.362Z,11.90
2019-03-28T05:56:49.864Z,12.00
2019-03-28T05:59:19.532Z,12.00
2019-03-28T06:01:49.839Z,12.00
2019-03-28T06:04:19.320Z,11.90
2019-03-28T06:06:49.052Z,11.90
2019-03-28T06:09:19.345Z,11.90
2019-03-28T06:11:48.841Z,11.80
2019-03-28T06:14:18.595Z,11.80
2019-03-28T06:16:49.165Z,11.60
2019-03-28T06:19:18.958Z,11.60
2019-03-28T06:21:48.759Z,11.50
2019-03-28T06:24:18.157Z,11.50
2019-03-28T06:26:49.887Z,11.40
2019-03-28T06:29:23.785Z,11.40
2019-03-28T06:31:55.047Z,11.40
2019-03-28T06:34:16.534Z,11.30
2019-03-28T06:36:45.799Z,11.30
2019-03-28T06:39:15.184Z,11.20
2019-03-28T06:41:44.718Z,11.10
2019-03-28T06:44:14.580Z,11.00
2019-03-28T06:46:44.261Z,11.00
2019-03-28T06:49:13.518Z,10.90
2019-03-28T06:51:42.962Z,10.90
2019-03-28T06:54:12.258Z,10.90
2019-03-28T06:56:41.378Z,10.90
2019-03-28T06:59:10.478Z,10.90
2019-03-28T07:01:40.079Z,10.80
2019-03-28T07:04:09.578Z,10.80
2019-03-28T07:06:39.042Z,10.70
2019-03-28T07:09:09.487Z,10.70
2019-03-28T07:11:39.791Z,10.60
2019-03-28T07:14:09.397Z,10.60
2019-03-28T07:16:40.103Z,10.60
2019-03-28T07:19:09.721Z,10.50
2019-03-28T07:21:38.951Z,10.50
2019-03-28T07:24:07.881Z,10.40
2019-03-28T07:26:37.390Z,10.30
2019-03-28T07:29:06.736Z,10.30
2019-03-28T07:31:36.013Z,10.30
2019-03-28T07:34:05.343Z,10.30
2019-03-28T07:36:34.933Z,10.30
2019-03-28T07:39:04.440Z,10.30
2019-03-28T07:41:33.900Z,10.20
2019-03-28T07:44:03.130Z,10.10
2019-03-28T07:46:32.139Z,10.10
2019-03-28T07:49:02.569Z,10.10
2019-03-28T07:51:31.957Z,10.10
2019-03-28T07:54:01.510Z,10.10
2019-03-28T07:56:30.730Z,10.00
2019-03-28T07:59:01.377Z,10.00
2019-03-28T08:01:29.973Z,10.00
2019-03-28T08:03:59.698Z,9.90
2019-03-28T08:06:29.227Z,9.90
2019-03-28T08:08:59.426Z,9.80
2019-03-28T08:11:29.117Z,9.80
2019-03-28T08:13:59.203Z,9.90
2019-03-28T08:16:28.928Z,9.90
2019-03-28T08:18:58.342Z,10.00
2019-03-28T08:21:28.545Z,10.00
2019-03-28T08:23:57.969Z,10.00
2019-03-28T08:26:30.034Z,10.10
2019-03-28T08:28:57.470Z,10.10
2019-03-28T08:31:26.874Z,10.10
2019-03-28T08:33:56.195Z,10.10
2019-03-28T08:36:25.690Z,10.10
2019-03-28T08:38:55.430Z,10.10
2019-03-28T08:41:24.915Z,10.00
2019-03-28T08:43:54.493Z,10.00
2019-03-28T08:46:24.004Z,10.00
2019-03-28T08:48:53.715Z,9.90
2019-03-28T08:51:23.208Z,9.90
2019-03-28T08:53:52.654Z,9.80
2019-03-28T08:56:22.108Z,9.80
2019-03-28T08:58:51.600Z,9.80
2019-03-28T09:01:21.472Z,9.80
2019-03-28T09:03:51.046Z,9.80
2019-03-28T09:06:20.170Z,9.80
2019-03-28T09:08:49.684Z,9.80
2019-03-28T09:11:21.461Z,9.80
2019-03-28T09:13:49.059Z,9.80
2019-03-28T09:16:18.685Z,9.80
2019-03-28T09:18:48.297Z,9.80
2019-03-28T09:21:17.617Z,9.80
2019-03-28T09:23:48.058Z,9.90
2019-03-28T09:26:17.670Z,9.90
2019-03-28T09:28:47.176Z,9.90
2019-03-28T09:31:20.308Z,9.90
2019-03-28T09:33:46.145Z,9.90
2019-03-28T09:36:15.418Z,10.00
2019-03-28T09:38:44.929Z,10.00
2019-03-28T09:41:15.141Z,10.10
2019-03-28T09:43:54.569Z,10.10
2019-03-28T09:46:14.232Z,10.20
2019-03-28T09:48:43.481Z,10.20
2019-03-28T09:51:12.986Z,10.20
2019-03-28T09:53:42.471Z,10.20
2019-03-28T09:56:11.849Z,10.20
2019-03-28T09:58:41.187Z,10.20
2019-03-28T10:01:10.712Z,10.20
2019-03-28T10:03:40.133Z,10.20
2019-03-28T10:06:10.012Z,10.20
2019-03-28T10:08:39.536Z,10.10
2019-03-28T10:11:08.991Z,10.10
2019-03-28T10:13:38.571Z,10.00
2019-03-28T10:16:08.131Z,10.00
2019-03-28T10:18:37.692Z,10.00
2019-03-28T10:21:07.812Z,10.10
2019-03-28T10:23:39.676Z,10.10
2019-03-28T10:26:06.796Z,10.10
2019-03-28T10:28:36.248Z,10.20
2019-03-28T10:31:15.723Z,10.20
2019-03-28T10:33:35.523Z,10.20
2019-03-28T10:36:05.126Z,10.00
2019-03-28T10:38:34.806Z,9.80
2019-03-28T10:41:04.199Z,9.80
2019-03-28T10:43:33.495Z,9.70
2019-03-28T10:46:03.039Z,9.80
2019-03-28T10:48:32.390Z,9.80
2019-03-28T10:51:01.761Z,9.90
2019-03-28T10:53:31.132Z,9.90
2019-03-28T10:56:00.789Z,9.90
2019-03-28T10:58:30.187Z,9.90
2019-03-28T11:01:00.707Z,9.90
2019-03-28T11:03:31.180Z,9.90
2019-03-28T11:06:00.514Z,9.90
2019-03-28T11:08:29.955Z,9.90
2019-03-28T11:10:59.676Z,9.90
2019-03-28T11:13:28.961Z,9.90
2019-03-28T11:15:58.060Z,9.90
2019-03-28T11:18:27.367Z,9.90
2019-03-28T11:20:57.149Z,9.90
2019-03-28T11:23:26.844Z,9.90
2019-03-28T11:25:57.455Z,9.90
2019-03-28T11:28:26.604Z,9.90
2019-03-28T11:30:56.119Z,9.90
2019-03-28T11:33:25.395Z,9.90
2019-03-28T11:35:54.594Z,9.90
2019-03-28T11:38:24.854Z,10.00
2019-03-28T11:40:55.183Z,10.00
2019-03-28T11:43:24.393Z,10.00
2019-03-28T11:45:53.537Z,10.00
2019-03-28T11:48:23.012Z,10.00
2019-03-28T11:50:52.563Z,10.00
2019-03-28T11:53:21.817Z,10.00
2019-03-28T11:55:51.061Z,10.10
2019-03-28T11:58:20.467Z,10.10
2019-03-28T12:00:50.020Z,10.20
2019-03-28T12:03:19.347Z,10.00
2019-03-28T12:05:49.487Z,10.00
2019-03-28T12:08:19.184Z,10.00
2019-03-28T12:10:49.329Z,10.00
2019-03-28T12:13:18.803Z,10.00
2019-03-28T12:15:48.069Z,10.00
2019-03-28T12:18:17.677Z,9.90
2019-03-28T12:20:46.965Z,9.90
2019-03-28T12:23:16.470Z,9.90
2019-03-28T12:25:47.298Z,10.00
2019-03-28T12:28:15.592Z,10.00
2019-03-28T12:30:45.255Z,10.10
2019-03-28T12:33:14.855Z,10.10
2019-03-28T12:35:44.592Z,10.10
2019-03-28T12:38:13.985Z,10.10
2019-03-28T12:40:43.277Z,10.10
2019-03-28T12:43:12.469Z,10.00
2019-03-28T12:45:42.376Z,10.00
2019-03-28T12:48:12.373Z,10.00
2019-03-28T12:50:41.706Z,9.90
2019-03-28T12:53:11.021Z,10.00
2019-03-28T12:55:40.636Z,10.00
2019-03-28T12:58:09.900Z,10.00
2019-03-28T13:00:39.518Z,10.00
2019-03-28T13:03:09.086Z,10.00
2019-03-28T13:05:38.238Z,10.10
2019-03-28T13:08:07.673Z,10.10
2019-03-28T13:10:36.762Z,10.10
2019-03-28T13:13:05.880Z,10.10
2019-03-28T13:15:36.243Z,10.10
2019-03-28T13:18:05.593Z,10.10
2019-03-28T13:20:35.151Z,10.10
2019-03-28T13:23:04.409Z,10.20
2019-03-28T13:25:34.056Z,10.10
2019-03-28T13:28:03.968Z,10.10
2019-03-28T13:30:33.281Z,10.10
2019-03-28T13:33:02.964Z,10.20
2019-03-28T13:35:34.941Z,10.10
2019-03-28T13:38:01.928Z,10.10
2019-03-28T13:40:31.419Z,10.00
2019-03-28T13:43:00.889Z,10.00
2019-03-28T13:45:30.295Z,10.00
2019-03-28T13:47:59.287Z,10.00
2019-03-28T13:50:29.289Z,9.80
2019-03-28T13:52:58.751Z,9.80
2019-03-28T13:55:28.101Z,9.80
2019-03-28T13:57:57.542Z,9.80
2019-03-28T14:00:31.189Z,9.80
2019-03-28T14:03:00.546Z,9.70
2019-03-28T14:05:30.309Z,9.60
2019-03-28T14:07:59.816Z,9.60
2019-03-28T14:10:29.173Z,9.60
2019-03-28T14:12:58.582Z,9.60
2019-03-28T14:15:28.121Z,9.60
2019-03-28T14:17:58.990Z,9.60
2019-03-28T14:20:28.564Z,9.50
2019-03-28T14:22:58.345Z,9.50
2019-03-28T14:25:27.560Z,9.50
2019-03-28T14:27:58.323Z,9.60
2019-03-28T14:30:27.866Z,9.60
2019-03-28T14:33:10.533Z,9.70
2019-03-28T14:35:27.137Z,9.70
2019-03-28T14:37:56.504Z,9.80
2019-03-28T14:40:25.992Z,9.80
2019-03-28T14:42:55.321Z,9.90
2019-03-28T14:45:24.859Z,10.00
2019-03-28T14:47:53.964Z,10.00
2019-03-28T14:50:23.784Z,10.00
2019-03-28T14:52:54.020Z,10.00
2019-03-28T14:55:23.441Z,10.00
2019-03-28T14:57:52.949Z,10.20
2019-03-28T15:00:28.675Z,10.30
2019-03-28T15:02:58.367Z,10.40
2019-03-28T15:05:27.774Z,10.40
2019-03-28T15:07:57.324Z,10.40
2019-03-28T15:10:27.693Z,10.50
2019-03-28T15:12:56.120Z,10.80
2019-03-28T15:15:25.875Z,10.90
2019-03-28T15:17:55.472Z,11.00
2019-03-28T15:20:27.412Z,11.10
2019-03-28T15:22:54.624Z,11.20
2019-03-28T15:25:24.155Z,11.40
2019-03-28T15:27:53.632Z,11.60
2019-03-28T15:30:24.217Z,11.80
2019-03-28T15:32:53.410Z,11.80
2019-03-28T15:35:22.723Z,12.00
2019-03-28T15:37:52.003Z,12.10
2019-03-28T15:40:21.517Z,12.20
2019-03-28T15:42:51.125Z,12.50
2019-03-28T15:45:20.742Z,12.70
2019-03-28T15:47:52.154Z,13.10
2019-03-28T15:50:20.915Z,13.30
2019-03-28T15:52:50.438Z,13.40
2019-03-28T15:55:20.281Z,13.90
2019-03-28T15:57:49.568Z,13.80
2019-03-28T16:00:18.811Z,13.80
2019-03-28T16:02:48.077Z,13.90
2019-03-28T16:05:17.637Z,14.00
2019-03-28T16:07:47.187Z,14.30
2019-03-28T16:10:17.121Z,14.70
2019-03-28T16:12:46.861Z,14.90
2019-03-28T16:15:16.239Z,15.10
2019-03-28T16:17:45.614Z,15.50
2019-03-28T16:20:15.049Z,16.10
2019-03-28T16:22:44.547Z,17.30
2019-03-28T16:25:14.192Z,19.70
2019-03-28T16:27:43.644Z,20.90
2019-03-28T16:30:13.415Z,24.50
2019-03-28T16:32:43.255Z,28.10
2019-03-28T16:35:12.610Z,28.90
2019-03-28T16:37:42.028Z,28.50
2019-03-28T16:40:11.489Z,27.60
2019-03-28T16:42:41.730Z,26.50
2019-03-28T16:45:11.105Z,25.60
2019-03-28T16:47:40.656Z,25.30
2019-03-28T16:50:10.461Z,25.00
2019-03-28T16:52:39.552Z,25.30
2019-03-28T16:55:08.877Z,25.20
2019-03-28T16:57:38.361Z,24.60
2019-03-28T17:00:13.469Z,23.80
2019-03-28T17:02:42.827Z,22.70
2019-03-28T17:05:12.305Z,22.40
2019-03-28T17:07:41.951Z,23.40
2019-03-28T17:10:12.369Z,23.40
2019-03-28T17:12:41.643Z,23.40
2019-03-28T17:15:11.319Z,26.90
2019-03-28T17:17:40.928Z,30.70
2019-03-28T17:20:10.435Z,34.20
2019-03-28T17:22:40.697Z,35.90
2019-03-28T17:25:10.148Z,36.10
2019-03-28T17:27:39.754Z,36.20
2019-03-28T17:30:09.079Z,36.20
2019-03-28T17:32:38.801Z,35.90
2019-03-28T17:35:09.001Z,36.90
2019-03-28T17:37:38.475Z,38.30
2019-03-28T17:40:07.830Z,37.60
2019-03-28T17:42:36.831Z,37.10
2019-03-28T17:45:06.901Z,38.30
2019-03-28T17:47:37.203Z,39.50
2019-03-28T17:50:07.769Z,39.50
2019-03-28T17:52:36.894Z,35.70
2019-03-28T17:55:07.671Z,32.00
2019-03-28T17:57:37.120Z,30.00
2019-03-28T18:00:07.908Z,29.20
2019-03-28T18:02:38.085Z,29.60
2019-03-28T18:05:09.613Z,30.80
2019-03-28T18:07:38.277Z,32.50
2019-03-28T18:10:07.794Z,32.70
2019-03-28T18:12:37.067Z,35.50
2019-03-28T18:15:07.224Z,40.40
2019-03-28T18:17:36.654Z,40.30
2019-03-28T18:20:07.352Z,42.00
2019-03-28T18:22:36.620Z,43.40
2019-03-28T18:25:08.115Z,43.50
2019-03-28T18:27:36.876Z,43.50
2019-03-28T18:30:06.988Z,43.20
2019-03-28T18:32:39.295Z,43.00
2019-03-28T18:35:08.297Z,43.00
2019-03-28T18:37:38.924Z,41.50
2019-03-28T18:40:08.648Z,41.40
2019-03-28T18:42:37.849Z,38.90
2019-03-28T18:45:07.921Z,37.20
2019-03-28T18:47:36.862Z,35.90
2019-03-28T18:50:07.169Z,32.60
2019-03-28T18:52:36.819Z,32.10
2019-03-28T18:55:07.312Z,33.20
2019-03-28T18:57:36.758Z,33.20
2019-03-28T19:00:07.237Z,29.30
2019-03-28T19:02:36.615Z,29.20
2019-03-28T19:05:19.226Z,28.70
2019-03-28T19:07:35.896Z,27.80
2019-03-28T19:10:06.428Z,26.00
2019-03-28T19:12:35.851Z,25.20
2019-03-28T19:15:06.670Z,25.70
2019-03-28T19:17:36.833Z,26.10
2019-03-28T19:20:07.804Z,26.10
2019-03-28T19:22:36.932Z,25.40
2019-03-28T19:25:07.412Z,26.30
2019-03-28T19:27:38.258Z,28.40
2019-03-28T19:30:07.840Z,29.10
2019-03-28T19:32:37.062Z,28.90
2019-03-28T19:35:07.119Z,29.10
2019-03-28T19:37:37.100Z,28.50
2019-03-28T19:40:07.345Z,28.10
2019-03-28T19:42:36.830Z,28.50
2019-03-28T19:45:06.550Z,28.10
2019-03-28T19:47:36.180Z,28.40
2019-03-28T19:50:08.033Z,30.20
2019-03-28T19:52:36.900Z,30.10
2019-03-28T19:55:06.455Z,31.70
2019-03-28T19:57:35.745Z,31.90
2019-03-28T20:00:08.682Z,32.00
2019-03-28T20:02:38.322Z,31.60
2019-03-28T20:05:08.063Z,31.00
2019-03-28T20:07:38.168Z,31.50
2019-03-28T20:10:16.332Z,31.50
2019-03-28T20:12:37.163Z,30.50
2019-03-28T20:15:08.244Z,29.30
2019-03-28T20:17:37.025Z,28.40
2019-03-28T20:20:07.003Z,27.60
2019-03-28T20:22:36.112Z,27.20
2019-03-28T20:25:06.914Z,26.50
2019-03-28T20:27:35.974Z,25.70
2019-03-28T20:30:06.084Z,25.50
2019-03-28T20:32:35.486Z,24.70
2019-03-28T20:35:05.314Z,23.90
2019-03-28T20:37:34.896Z,23.20
2019-03-28T20:40:04.823Z,22.70
2019-03-28T20:42:35.569Z,23.00
2019-03-28T20:45:06.917Z,23.00
2019-03-28T20:47:36.902Z,23.10
2019-03-28T20:50:06.701Z,23.00
2019-03-28T20:52:36.277Z,23.00
2019-03-28T20:55:06.258Z,23.00
2019-03-28T20:57:35.987Z,23.00
2019-03-28T21:00:08.316Z,23.10
2019-03-28T21:02:35.597Z,23.20
2019-03-28T21:05:05.096Z,23.00
2019-03-28T21:07:35.284Z,22.90
2019-03-28T21:10:04.755Z,22.90
2019-03-28T21:12:34.022Z,22.70
2019-03-28T21:15:03.653Z,22.30
2019-03-28T21:17:33.934Z,22.20
2019-03-28T21:20:02.869Z,22.20
2019-03-28T21:22:32.439Z,22.40
2019-03-28T21:25:01.998Z,22.30
2019-03-28T21:27:31.373Z,22.30
2019-03-28T21:30:00.949Z,22.40
2019-03-28T21:32:30.059Z,22.30
2019-03-28T21:34:59.404Z,22.30
2019-03-28T21:37:28.974Z,22.10
2019-03-28T21:39:58.435Z,21.90
2019-03-28T21:42:27.620Z,21.70
2019-03-28T21:44:58.425Z,21.70
2019-03-28T21:47:27.063Z,21.60
2019-03-28T21:49:56.271Z,21.60
2019-03-28T21:52:25.570Z,21.40
2019-03-28T21:54:54.887Z,21.20
2019-03-28T21:57:24.070Z,21.20
2019-03-28T21:59:54.210Z,21.20
2019-03-28T22:02:24.755Z,21.20
2019-03-28T22:04:53.697Z,21.20
2019-03-28T22:07:23.252Z,21.00
2019-03-28T22:09:52.544Z,21.00
2019-03-28T22:12:22.074Z,21.00
2019-03-28T22:14:51.483Z,21.00
2019-03-28T22:17:21.049Z,21.00
2019-03-28T22:19:51.717Z,20.90
2019-03-28T22:22:20.149Z,20.70
2019-03-28T22:24:49.462Z,20.70
2019-03-28T22:27:19.746Z,20.50
2019-03-28T22:29:49.133Z,20.50
2019-03-28T22:32:18.746Z,20.50
2019-03-28T22:34:48.250Z,20.50
2019-03-28T22:37:17.645Z,20.60
2019-03-28T22:39:46.882Z,20.60
2019-03-28T22:42:15.820Z,20.50
2019-03-28T22:44:45.314Z,20.50
2019-03-28T22:47:14.914Z,20.20
2019-03-28T22:49:44.385Z,20.00
2019-03-28T22:52:13.606Z,19.70
2019-03-28T22:54:43.736Z,19.40
2019-03-28T22:57:13.122Z,19.40
2019-03-28T22:59:43.623Z,19.30
2019-03-28T23:02:13.231Z,19.30
2019-03-28T23:04:42.599Z,19.30
2019-03-28T23:07:12.045Z,19.30
2019-03-28T23:09:41.260Z,19.20
2019-03-28T23:12:10.972Z,19.10
2019-03-28T23:14:41.664Z,19.20
2019-03-28T23:17:11.236Z,19.30
2019-03-28T23:19:41.483Z,19.30
2019-03-28T23:22:10.877Z,19.30
2019-03-28T23:24:40.192Z,19.30
2019-03-28T23:27:09.745Z,19.20
2019-03-28T23:29:39.297Z,19.20
2019-03-28T23:32:08.225Z,19.20
2019-03-28T23:34:37.377Z,19.10
2019-03-28T23:37:06.983Z,19.00
2019-03-28T23:39:37.186Z,18.90
2019-03-28T23:42:05.959Z,18.90
2019-03-28T23:44:35.558Z,18.90
2019-03-28T23:47:04.954Z,18.80
2019-03-28T23:49:38.380Z,18.80
2019-03-28T23:52:04.867Z,18.90
2019-03-28T23:54:34.271Z,18.90
2019-03-28T23:57:03.805Z,18.80
2019-03-28T23:59:34.124Z,18.90
